Terminal Aerodrome Forecast
Issued by NWS Sterling, VA

Current Version | Previous Version | Graphics & Text | Print | Product List | Glossary On
Versions: 1 2 3 4 5 6 7 8 9 10 11 12 13 14 15 16 17 18 19 20 21 22 23 24 25 26 27
000
FTUS41 KLWX 021456 AAA
TAFIAD
TAF AMD
KIAD 021456Z 0215/0318 33004KT P6SM SCT060 BKN250
     FM021900 31006KT P6SM BKN090
     FM030800 31005KT P6SM SCT060
     FM030900 32005KT 5SM BR SCT060
     FM031300 33004KT P6SM SCT250=

USA.gov is the U.S. government's official web portal to all federal, state and local government web resources and services.